Time;durP1;ratioP1;P1;durP2;ratioP2;P2;SDS_P1;SDS_P2;PMS_P1;PMS_P2;Temp;Humidity;BMP_temperature;BMP_pressure;BME280_temperature;BME280_humidity;BME280_pressure;Samples;Min_cycle;Max_cycle;Signal;HPM_P1;HPM_P2
2022/08/03 00:01:20;;;;;;;0.20;0.10;;;;;;;;;;4849423;29;20051;-82
2022/08/03 00:03:46;;;;;;;0.20;0.10;;;;;;;;;;4857312;29;20122;-82
2022/08/03 00:06:12;;;;;;;0.20;0.10;;;;;;;;;;4843580;29;20175;-82
2022/08/03 00:08:38;;;;;;;0.20;0.10;;;;;;;;;;4830348;29;20112;-82
2022/08/03 00:11:05;;;;;;;0.20;0.10;;;;;;;;;;4849711;29;20151;-82
2022/08/03 00:13:32;;;;;;;0.20;0.10;;;;;;;;;;4860611;29;20073;-82
2022/08/03 00:15:58;;;;;;;0.20;0.10;;;;;;;;;;4846837;29;20037;-82
2022/08/03 00:18:24;;;;;;;0.20;0.10;;;;;;;;;;4849355;29;20041;-82
2022/08/03 00:20:50;;;;;;;0.20;0.10;;;;;;;;;;4861124;29;20519;-82
2022/08/03 00:23:16;;;;;;;0.30;0.30;;;;;;;;;;4858649;29;20049;-82
2022/08/03 00:25:42;;;;;;;0.20;0.10;;;;;;;;;;4862343;29;20047;-82
2022/08/03 00:28:09;;;;;;;0.20;0.10;;;;;;;;;;4834120;29;20048;-83
2022/08/03 00:30:35;;;;;;;0.20;0.10;;;;;;;;;;4853268;29;20056;-82
2022/08/03 00:33:01;;;;;;;0.20;0.10;;;;;;;;;;4852880;29;20064;-82
2022/08/03 00:35:28;;;;;;;0.20;0.10;;;;;;;;;;4844196;29;20133;-82
2022/08/03 00:37:54;;;;;;;0.20;0.10;;;;;;;;;;4847473;29;22160;-82
2022/08/03 00:40:20;;;;;;;0.20;0.10;;;;;;;;;;4827962;29;20048;-81
2022/08/03 00:42:52;;;;;;;0.20;0.10;;;;;;;;;;4837121;29;20053;-82
2022/08/03 00:45:18;;;;;;;0.20;0.10;;;;;;;;;;4848650;29;20056;-82
2022/08/03 00:47:45;;;;;;;0.20;0.10;;;;;;;;;;4846927;29;20621;-82
2022/08/03 00:50:11;;;;;;;0.47;0.45;;;;;;;;;;4837268;29;20421;-81
2022/08/03 00:52:38;;;;;;;0.20;0.10;;;;;;;;;;4841038;29;21538;-82
2022/08/03 00:55:04;;;;;;;0.20;0.10;;;;;;;;;;4838102;29;20041;-82
2022/08/03 00:57:31;;;;;;;0.20;0.10;;;;;;;;;;4838681;29;20132;-82
2022/08/03 00:59:58;;;;;;;0.20;0.10;;;;;;;;;;4840710;29;20563;-82
2022/08/03 01:02:25;;;;;;;0.20;0.10;;;;;;;;;;4842622;29;20559;-82
2022/08/03 01:04:51;;;;;;;0.20;0.10;;;;;;;;;;4855389;29;20517;-82
2022/08/03 01:07:25;;;;;;;0.20;0.10;;;;;;;;;;4854644;29;20515;-83
2022/08/03 01:10:01;;;;;;;0.20;0.17;;;;;;;;;;4859121;29;20419;-82
2022/08/03 01:12:27;;;;;;;0.20;0.10;;;;;;;;;;4863190;29;20133;-82
2022/08/03 01:15:05;;;;;;;0.20;0.10;;;;;;;;;;4867008;29;20045;-82
2022/08/03 01:17:39;;;;;;;0.20;0.10;;;;;;;;;;4869043;29;20060;-82
2022/08/03 01:20:07;;;;;;;0.20;0.10;;;;;;;;;;4850469;29;20046;-82
2022/08/03 01:22:59;;;;;;;0.20;0.10;;;;;;;;;;4863421;29;20040;-82
2022/08/03 01:25:44;;;;;;;0.20;0.10;;;;;;;;;;4838960;29;20120;-82
2022/08/03 01:28:17;;;;;;;0.20;0.10;;;;;;;;;;4864215;29;20053;-81
2022/08/03 01:30:45;;;;;;;0.20;0.10;;;;;;;;;;4852230;29;20040;-82
2022/08/03 01:33:18;;;;;;;0.20;0.10;;;;;;;;;;4854865;29;20037;-81
2022/08/03 01:35:46;;;;;;;0.20;0.10;;;;;;;;;;4849537;29;20049;-82
2022/08/03 01:38:24;;;;;;;0.20;0.10;;;;;;;;;;4846598;29;20049;-81
2022/08/03 01:40:50;;;;;;;2.13;0.80;;;;;;;;;;4846036;29;20037;-81
2022/08/03 01:43:19;;;;;;;3.10;1.17;;;;;;;;;;4863157;29;20754;-81
2022/08/03 01:45:45;;;;;;;0.20;0.10;;;;;;;;;;4846883;29;20049;-81
2022/08/03 01:48:13;;;;;;;0.20;0.10;;;;;;;;;;4851128;29;20041;-81
2022/08/03 01:50:39;;;;;;;0.38;0.38;;;;;;;;;;4846828;29;20041;-81
2022/08/03 01:53:07;;;;;;;0.20;0.10;;;;;;;;;;4848486;29;20104;-81
2022/08/03 01:55:34;;;;;;;0.20;0.10;;;;;;;;;;4846320;29;20065;-80
2022/08/03 01:58:01;;;;;;;0.20;0.10;;;;;;;;;;4863324;29;20085;-80
2022/08/03 02:00:27;;;;;;;0.30;0.30;;;;;;;;;;4842961;29;20053;-81
2022/08/03 02:02:54;;;;;;;0.20;0.15;;;;;;;;;;4843931;29;22171;-82
2022/08/03 02:05:20;;;;;;;0.20;0.20;;;;;;;;;;4849468;29;20136;-81
2022/08/03 02:07:47;;;;;;;0.20;0.10;;;;;;;;;;4845945;29;20522;-81
2022/08/03 02:10:15;;;;;;;0.20;0.10;;;;;;;;;;4828819;29;20076;-82
2022/08/03 02:12:44;;;;;;;0.20;0.10;;;;;;;;;;4864710;29;20045;-81
2022/08/03 02:15:11;;;;;;;0.20;0.10;;;;;;;;;;4864131;29;20051;-81
2022/08/03 02:17:37;;;;;;;0.20;0.10;;;;;;;;;;4848829;29;20037;-82
2022/08/03 02:20:05;;;;;;;0.20;0.10;;;;;;;;;;4851383;29;20041;-81
2022/08/03 02:22:32;;;;;;;0.20;0.10;;;;;;;;;;4850065;29;20073;-81
2022/08/03 02:24:58;;;;;;;0.20;0.10;;;;;;;;;;4866433;29;20530;-82
2022/08/03 02:27:26;;;;;;;0.20;0.10;;;;;;;;;;4832851;29;20048;-81
2022/08/03 02:29:54;;;;;;;0.20;0.10;;;;;;;;;;4862418;29;20041;-82
2022/08/03 02:32:22;;;;;;;7.00;0.63;;;;;;;;;;4849746;29;20052;-81
2022/08/03 02:34:50;;;;;;;0.20;0.10;;;;;;;;;;4849443;29;20056;-81
2022/08/03 02:37:17;;;;;;;0.20;0.10;;;;;;;;;;4861030;29;20060;-81
2022/08/03 02:39:44;;;;;;;0.20;0.10;;;;;;;;;;4866718;29;20116;-81
2022/08/03 02:42:11;;;;;;;0.20;0.10;;;;;;;;;;4835759;29;20053;-81
2022/08/03 02:44:37;;;;;;;0.20;0.10;;;;;;;;;;4849555;29;20047;-82
2022/08/03 02:47:07;;;;;;;0.20;0.10;;;;;;;;;;4844732;29;21473;-82
2022/08/03 02:49:33;;;;;;;0.20;0.10;;;;;;;;;;4847227;29;20073;-82
2022/08/03 02:52:00;;;;;;;0.20;0.10;;;;;;;;;;4849835;29;20542;-82
2022/08/03 02:54:27;;;;;;;0.20;0.10;;;;;;;;;;4846728;29;20041;-82
2022/08/03 02:56:54;;;;;;;0.20;0.10;;;;;;;;;;4850091;29;20037;-82
2022/08/03 02:59:20;;;;;;;0.20;0.10;;;;;;;;;;4863781;29;20198;-81
2022/08/03 03:01:47;;;;;;;0.20;0.10;;;;;;;;;;4864787;29;20040;-82
2022/08/03 03:04:13;;;;;;;0.20;0.10;;;;;;;;;;4830516;29;20048;-82
2022/08/03 03:06:40;;;;;;;0.20;0.10;;;;;;;;;;4844111;29;20045;-82
2022/08/03 03:09:06;;;;;;;0.20;0.10;;;;;;;;;;4860221;29;20056;-81
2022/08/03 03:11:33;;;;;;;0.20;0.10;;;;;;;;;;4864044;29;20044;-82
2022/08/03 03:13:59;;;;;;;0.20;0.10;;;;;;;;;;4828140;29;20064;-81
2022/08/03 03:16:26;;;;;;;0.20;0.10;;;;;;;;;;4838912;29;20511;-81
2022/08/03 03:18:53;;;;;;;0.20;0.10;;;;;;;;;;4845336;29;20071;-82
2022/08/03 03:21:20;;;;;;;0.20;0.10;;;;;;;;;;4862204;29;20075;-81
2022/08/03 03:23:47;;;;;;;0.20;0.10;;;;;;;;;;4845876;29;20041;-81
2022/08/03 03:26:14;;;;;;;0.20;0.10;;;;;;;;;;4857669;29;20105;-82
2022/08/03 03:28:40;;;;;;;0.20;0.20;;;;;;;;;;4861399;29;20124;-82
2022/08/03 03:31:07;;;;;;;0.45;0.20;;;;;;;;;;4849172;29;20498;-81
2022/08/03 03:33:33;;;;;;;0.20;0.10;;;;;;;;;;4862163;29;20108;-81
2022/08/03 03:35:59;;;;;;;0.20;0.10;;;;;;;;;;4851649;29;20046;-81
2022/08/03 03:38:26;;;;;;;0.20;0.10;;;;;;;;;;4846866;29;20048;-82
2022/08/03 03:40:52;;;;;;;0.20;0.10;;;;;;;;;;4829406;29;20111;-80
2022/08/03 03:43:18;;;;;;;0.20;0.10;;;;;;;;;;4835431;29;21621;-82
2022/08/03 03:45:45;;;;;;;0.20;0.10;;;;;;;;;;4845821;29;20081;-84
2022/08/03 03:48:12;;;;;;;0.20;0.10;;;;;;;;;;4845837;29;20037;-82
2022/08/03 03:50:39;;;;;;;0.20;0.10;;;;;;;;;;4836984;29;20053;-82
2022/08/03 03:53:08;;;;;;;0.20;0.10;;;;;;;;;;4858903;29;20124;-83
2022/08/03 03:55:34;;;;;;;0.20;0.10;;;;;;;;;;4845297;29;20047;-82
2022/08/03 03:58:00;;;;;;;0.20;0.10;;;;;;;;;;4847202;29;20040;-83
2022/08/03 04:00:26;;;;;;;0.20;0.10;;;;;;;;;;4847365;29;20052;-82
2022/08/03 04:02:52;;;;;;;0.20;0.10;;;;;;;;;;4828416;29;20102;-85
2022/08/03 04:11:00;;;;;;;0.20;0.10;;;;;;;;;;4860719;29;20053;-82
2022/08/03 04:13:44;;;;;;;0.20;0.10;;;;;;;;;;4850239;29;20044;-83
2022/08/03 04:16:12;;;;;;;0.20;0.10;;;;;;;;;;4847148;29;20041;-82
2022/08/03 04:18:40;;;;;;;0.20;0.10;;;;;;;;;;4848660;29;20065;-81
2022/08/03 04:21:08;;;;;;;0.20;0.08;;;;;;;;;;4854660;29;20076;-83
2022/08/03 04:23:36;;;;;;;0.20;0.10;;;;;;;;;;4846390;29;20120;-82
2022/08/03 04:26:02;;;;;;;0.20;0.10;;;;;;;;;;4850983;29;20612;-82
2022/08/03 04:28:30;;;;;;;0.20;0.10;;;;;;;;;;4850969;29;20051;-82
2022/08/03 04:30:57;;;;;;;0.20;0.10;;;;;;;;;;4862858;29;20052;-83
2022/08/03 04:33:26;;;;;;;0.20;0.10;;;;;;;;;;4842318;29;20637;-83
2022/08/03 04:35:52;;;;;;;0.20;0.10;;;;;;;;;;4861379;29;20044;-84
2022/08/03 04:38:19;;;;;;;0.20;0.10;;;;;;;;;;4883157;24;20055;-90
2022/08/03 04:40:46;;;;;;;0.20;0.10;;;;;;;;;;4851887;29;20060;-88
2022/08/03 04:43:14;;;;;;;0.20;0.10;;;;;;;;;;4862159;29;20044;-87
2022/08/03 04:45:46;;;;;;;0.20;0.10;;;;;;;;;;4877256;29;20979;-90
2022/08/03 04:48:14;;;;;;;0.75;0.75;;;;;;;;;;4857914;29;20039;-90
2022/08/03 04:50:40;;;;;;;0.20;0.10;;;;;;;;;;4852737;29;20089;-89
2022/08/03 04:53:07;;;;;;;0.20;0.10;;;;;;;;;;4850327;29;20037;-89
2022/08/03 04:55:33;;;;;;;0.43;0.43;;;;;;;;;;4851353;29;20080;-91
2022/08/03 04:58:00;;;;;;;0.20;0.10;;;;;;;;;;4849406;29;20143;-90
2022/08/03 05:00:29;;;;;;;0.20;0.10;;;;;;;;;;4857240;29;20049;-88
2022/08/03 05:02:58;;;;;;;0.20;0.10;;;;;;;;;;4855076;29;20109;-91
2022/08/03 05:05:27;;;;;;;0.20;0.10;;;;;;;;;;4854983;29;20052;-88
2022/08/03 05:07:53;;;;;;;0.20;0.10;;;;;;;;;;4866017;29;20048;-88
2022/08/03 05:10:22;;;;;;;0.20;0.10;;;;;;;;;;4842862;29;20106;-89
2022/08/03 05:12:51;;;;;;;0.20;0.10;;;;;;;;;;4845882;29;20044;-89
2022/08/03 05:15:17;;;;;;;0.20;0.10;;;;;;;;;;4874117;29;20111;-87
2022/08/03 05:17:43;;;;;;;0.20;0.10;;;;;;;;;;4855361;29;20120;-88
2022/08/03 05:20:17;;;;;;;0.20;0.10;;;;;;;;;;4887120;29;20167;-91
2022/08/03 05:22:44;;;;;;;0.45;0.32;;;;;;;;;;4855752;29;20052;-86
2022/08/03 05:25:10;;;;;;;0.20;0.10;;;;;;;;;;4882062;29;20053;-90
2022/08/03 05:27:36;;;;;;;0.20;0.10;;;;;;;;;;4863526;29;20056;-90
2022/08/03 05:30:03;;;;;;;0.20;0.10;;;;;;;;;;4884783;29;20407;-89
2022/08/03 05:32:29;;;;;;;0.20;0.10;;;;;;;;;;4869602;29;20072;-86
2022/08/03 05:35:04;;;;;;;0.45;0.25;;;;;;;;;;4838645;29;20056;-88
2022/08/03 05:37:30;;;;;;;0.20;0.10;;;;;;;;;;4864829;29;20079;-88
2022/08/03 05:39:56;;;;;;;0.20;0.10;;;;;;;;;;4835303;29;20060;-86
2022/08/03 05:42:22;;;;;;;0.20;0.10;;;;;;;;;;4853431;29;20510;-86
2022/08/03 05:44:48;;;;;;;0.20;0.10;;;;;;;;;;4849508;29;20043;-84
2022/08/03 05:47:16;;;;;;;0.20;0.10;;;;;;;;;;4834813;29;20100;-88
2022/08/03 05:49:42;;;;;;;0.20;0.10;;;;;;;;;;4849441;29;20036;-87
2022/08/03 05:52:08;;;;;;;0.20;0.10;;;;;;;;;;4854947;29;20035;-86
2022/08/03 05:54:35;;;;;;;0.20;0.10;;;;;;;;;;4848886;29;20041;-86
2022/08/03 05:57:02;;;;;;;0.20;0.10;;;;;;;;;;4853734;29;20104;-83
2022/08/03 05:59:28;;;;;;;0.20;0.10;;;;;;;;;;4851860;29;20979;-88
2022/08/03 06:01:54;;;;;;;0.20;0.10;;;;;;;;;;4864516;29;20037;-86
2022/08/03 06:04:20;;;;;;;0.20;0.10;;;;;;;;;;4865187;29;20044;-85
2022/08/03 06:06:47;;;;;;;0.20;0.10;;;;;;;;;;4848762;29;20063;-87
2022/08/03 06:09:14;;;;;;;0.20;0.20;;;;;;;;;;4863913;29;20041;-88
2022/08/03 06:11:40;;;;;;;0.20;0.10;;;;;;;;;;4850528;29;20048;-86
2022/08/03 06:14:07;;;;;;;0.20;0.10;;;;;;;;;;4880361;29;20056;-85
2022/08/03 06:16:34;;;;;;;0.20;0.10;;;;;;;;;;4864151;29;20124;-87
2022/08/03 06:19:00;;;;;;;0.20;0.10;;;;;;;;;;4851108;29;20052;-89
2022/08/03 06:21:26;;;;;;;1.88;1.17;;;;;;;;;;4877004;29;20407;-88
2022/08/03 06:23:52;;;;;;;0.20;0.10;;;;;;;;;;4872333;29;20127;-82
2022/08/03 06:26:18;;;;;;;0.20;0.10;;;;;;;;;;4871547;29;20044;-87
2022/08/03 06:28:45;;;;;;;0.20;0.20;;;;;;;;;;4838301;29;20085;-86
2022/08/03 06:31:11;;;;;;;0.20;0.10;;;;;;;;;;4852125;29;20044;-85
2022/08/03 06:33:37;;;;;;;0.20;0.10;;;;;;;;;;4856357;29;20542;-86
2022/08/03 06:36:03;;;;;;;0.20;0.10;;;;;;;;;;4852303;29;20060;-86
2022/08/03 06:38:32;;;;;;;0.20;0.10;;;;;;;;;;4849227;29;20041;-87
2022/08/03 06:40:58;;;;;;;0.20;0.10;;;;;;;;;;4851184;29;20092;-83
2022/08/03 06:43:24;;;;;;;0.20;0.10;;;;;;;;;;4851599;29;20132;-88
2022/08/03 06:45:50;;;;;;;0.20;0.10;;;;;;;;;;4841267;29;20048;-87
2022/08/03 06:48:16;;;;;;;0.20;0.10;;;;;;;;;;4859116;29;20044;-89
2022/08/03 06:50:43;;;;;;;0.20;0.10;;;;;;;;;;4853531;29;20092;-87
2022/08/03 06:53:09;;;;;;;0.20;0.10;;;;;;;;;;4854633;29;20049;-84
2022/08/03 06:55:38;;;;;;;0.20;0.10;;;;;;;;;;4864928;29;20119;-87
2022/08/03 06:58:04;;;;;;;0.20;0.10;;;;;;;;;;4878790;29;20049;-85
2022/08/03 07:00:31;;;;;;;0.50;0.40;;;;;;;;;;4883754;29;20082;-84
2022/08/03 07:02:57;;;;;;;0.20;0.10;;;;;;;;;;4845828;29;20049;-85
2022/08/03 07:05:23;;;;;;;0.20;0.10;;;;;;;;;;4867608;29;20156;-87
2022/08/03 07:07:52;;;;;;;0.20;0.10;;;;;;;;;;4848199;29;20060;-88
2022/08/03 07:10:23;;;;;;;0.20;0.10;;;;;;;;;;4864027;29;20048;-88
2022/08/03 07:12:50;;;;;;;0.20;0.10;;;;;;;;;;4849442;29;20706;-88
2022/08/03 07:15:17;;;;;;;0.20;0.10;;;;;;;;;;4862280;29;20063;-87
2022/08/03 07:17:45;;;;;;;0.20;0.10;;;;;;;;;;4850459;29;20963;-88
2022/08/03 07:20:12;;;;;;;0.20;0.10;;;;;;;;;;4856281;29;20104;-88
2022/08/03 07:22:38;;;;;;;0.30;0.30;;;;;;;;;;4879150;29;20185;-86
2022/08/03 07:25:04;;;;;;;0.20;0.10;;;;;;;;;;4875905;29;20036;-87
2022/08/03 07:27:31;;;;;;;1.65;0.75;;;;;;;;;;4848549;29;20112;-82
2022/08/03 07:29:57;;;;;;;0.20;0.10;;;;;;;;;;4855969;29;20092;-87
2022/08/03 07:32:24;;;;;;;0.20;0.10;;;;;;;;;;4843202;29;20049;-88
2022/08/03 07:34:50;;;;;;;0.20;0.10;;;;;;;;;;4848375;29;20088;-89
2022/08/03 07:37:16;;;;;;;0.20;0.10;;;;;;;;;;4833867;29;20076;-87
2022/08/03 07:39:42;;;;;;;0.20;0.10;;;;;;;;;;4863091;29;20032;-87
2022/08/03 07:42:08;;;;;;;0.20;0.10;;;;;;;;;;4832361;29;20559;-84
2022/08/03 07:44:38;;;;;;;0.20;0.10;;;;;;;;;;4863056;29;20041;-86
2022/08/03 07:47:04;;;;;;;2.10;1.23;;;;;;;;;;4839631;29;20083;-87
2022/08/03 07:49:30;;;;;;;0.20;0.10;;;;;;;;;;4877563;29;20132;-90
2022/08/03 07:54:42;;;;;;;0.20;0.10;;;;;;;;;;4857152;29;20053;-86
2022/08/03 07:57:08;;;;;;;0.20;0.10;;;;;;;;;;4849900;29;20119;-86
2022/08/03 07:59:34;;;;;;;1.10;1.00;;;;;;;;;;4844640;29;20060;-87
2022/08/03 08:02:03;;;;;;;0.20;0.10;;;;;;;;;;4835681;29;20049;-86
2022/08/03 08:04:29;;;;;;;0.20;0.10;;;;;;;;;;4823568;29;20107;-86
2022/08/03 08:06:55;;;;;;;0.20;0.10;;;;;;;;;;4838492;29;20150;-85
2022/08/03 08:09:24;;;;;;;0.20;0.10;;;;;;;;;;4845642;29;20051;-84
2022/08/03 08:11:50;;;;;;;0.20;0.10;;;;;;;;;;4857965;29;20056;-87
2022/08/03 08:14:16;;;;;;;0.20;0.10;;;;;;;;;;4846758;29;20404;-88
2022/08/03 08:16:42;;;;;;;0.20;0.10;;;;;;;;;;4874841;29;20044;-84
2022/08/03 08:19:08;;;;;;;0.20;0.10;;;;;;;;;;4841754;29;20482;-87
2022/08/03 08:21:37;;;;;;;0.20;0.10;;;;;;;;;;4841224;29;20083;-85
2022/08/03 08:24:05;;;;;;;0.20;0.10;;;;;;;;;;4869147;29;20556;-86
2022/08/03 08:26:31;;;;;;;0.22;0.15;;;;;;;;;;4861667;29;20142;-88
2022/08/03 08:28:57;;;;;;;0.22;0.20;;;;;;;;;;4830752;29;20044;-86
2022/08/03 08:31:23;;;;;;;0.20;0.10;;;;;;;;;;4838238;29;20049;-86
2022/08/03 08:33:49;;;;;;;0.20;0.10;;;;;;;;;;4850183;29;21035;-87
2022/08/03 08:36:15;;;;;;;0.20;0.10;;;;;;;;;;4869978;29;20048;-84
2022/08/03 08:38:43;;;;;;;0.20;0.10;;;;;;;;;;4852959;29;20563;-82
2022/08/03 08:41:10;;;;;;;0.20;0.10;;;;;;;;;;4837108;29;20067;-85
2022/08/03 08:43:36;;;;;;;0.20;0.10;;;;;;;;;;4859210;29;20062;-89
2022/08/03 08:46:03;;;;;;;0.80;0.57;;;;;;;;;;4882979;29;20119;-85
2022/08/03 08:48:30;;;;;;;0.20;0.10;;;;;;;;;;4875969;29;20063;-79
2022/08/03 08:50:57;;;;;;;0.20;0.10;;;;;;;;;;4849640;29;20046;-87
2022/08/03 08:53:27;;;;;;;0.20;0.10;;;;;;;;;;4865929;29;20108;-87
2022/08/03 08:55:54;;;;;;;0.20;0.10;;;;;;;;;;4867982;29;20504;-87
2022/08/03 08:58:22;;;;;;;0.20;0.10;;;;;;;;;;4862959;29;20041;-86
2022/08/03 09:00:49;;;;;;;0.20;0.13;;;;;;;;;;4860827;29;21642;-82
2022/08/03 09:03:16;;;;;;;0.20;0.10;;;;;;;;;;4847700;29;22010;-87
2022/08/03 09:05:43;;;;;;;0.20;0.10;;;;;;;;;;4845998;29;20135;-85
2022/08/03 09:08:09;;;;;;;0.20;0.10;;;;;;;;;;4853833;29;20044;-87
2022/08/03 09:10:35;;;;;;;0.20;0.10;;;;;;;;;;4866552;29;20382;-87
2022/08/03 09:13:01;;;;;;;0.20;0.10;;;;;;;;;;4857490;29;20051;-88
2022/08/03 09:15:30;;;;;;;0.20;0.10;;;;;;;;;;4855208;29;20032;-88
2022/08/03 09:17:57;;;;;;;0.20;0.10;;;;;;;;;;4871030;29;20041;-82
2022/08/03 09:20:33;;;;;;;0.20;0.10;;;;;;;;;;4869455;29;20044;-88
2022/08/03 09:23:07;;;;;;;0.20;0.10;;;;;;;;;;4868256;29;20500;-87
2022/08/03 09:25:37;;;;;;;0.20;0.10;;;;;;;;;;4856313;29;20646;-90
2022/08/03 09:28:04;;;;;;;0.20;0.10;;;;;;;;;;4851930;29;20367;-88
2022/08/03 09:30:34;;;;;;;0.20;0.10;;;;;;;;;;4869949;29;20112;-86
2022/08/03 09:33:18;;;;;;;1.23;1.00;;;;;;;;;;4878958;29;20037;-89
2022/08/03 09:35:45;;;;;;;0.20;0.10;;;;;;;;;;4873178;29;20048;-86
2022/08/03 09:38:22;;;;;;;0.20;0.10;;;;;;;;;;4838972;29;20733;-85
2022/08/03 09:40:48;;;;;;;0.20;0.10;;;;;;;;;;4853895;29;20040;-84
2022/08/03 09:43:17;;;;;;;0.20;0.10;;;;;;;;;;4887412;29;20040;-85
2022/08/03 09:45:43;;;;;;;0.20;0.10;;;;;;;;;;4868178;29;20049;-88
2022/08/03 09:48:27;;;;;;;0.20;0.10;;;;;;;;;;4889504;23;20040;-88
2022/08/03 09:51:14;;;;;;;0.68;0.35;;;;;;;;;;4876817;29;20411;-84
2022/08/03 09:53:48;;;;;;;0.68;0.65;;;;;;;;;;4884449;29;20155;-87
2022/08/03 09:56:14;;;;;;;3.22;1.75;;;;;;;;;;4865557;29;20049;-87
2022/08/03 09:58:49;;;;;;;0.90;0.80;;;;;;;;;;4840125;29;20048;-86
2022/08/03 10:01:15;;;;;;;0.20;0.10;;;;;;;;;;4882979;23;20091;-82
2022/08/03 10:03:41;;;;;;;0.20;0.10;;;;;;;;;;4868033;29;20131;-84
2022/08/03 10:06:15;;;;;;;1.75;0.80;;;;;;;;;;4854284;29;20043;-84
2022/08/03 10:08:41;;;;;;;3.28;0.80;;;;;;;;;;4866356;29;20037;-82
2022/08/03 10:11:07;;;;;;;0.55;0.55;;;;;;;;;;4860061;29;20056;-84
2022/08/03 10:13:34;;;;;;;0.20;0.10;;;;;;;;;;4864129;29;20056;-82
2022/08/03 10:16:00;;;;;;;0.20;0.10;;;;;;;;;;4866543;29;20049;-84
2022/08/03 10:18:26;;;;;;;0.20;0.10;;;;;;;;;;4851795;29;20093;-84
2022/08/03 10:20:52;;;;;;;0.20;0.10;;;;;;;;;;4869307;29;20045;-86
2022/08/03 10:23:19;;;;;;;0.65;0.40;;;;;;;;;;4851975;29;20128;-84
2022/08/03 10:25:50;;;;;;;4.88;0.75;;;;;;;;;;4869046;29;20044;-82
2022/08/03 10:28:18;;;;;;;0.20;0.10;;;;;;;;;;4856512;29;20040;-82
2022/08/03 10:30:48;;;;;;;0.20;0.10;;;;;;;;;;4866878;29;20056;-84
2022/08/03 10:33:19;;;;;;;0.20;0.10;;;;;;;;;;4853872;29;20037;-84
2022/08/03 10:35:47;;;;;;;0.52;0.50;;;;;;;;;;4855890;29;20072;-84
2022/08/03 10:38:17;;;;;;;0.20;0.10;;;;;;;;;;4850371;29;20407;-83
2022/08/03 10:40:43;;;;;;;0.20;0.10;;;;;;;;;;4857726;29;21823;-84
2022/08/03 10:43:12;;;;;;;0.20;0.20;;;;;;;;;;4842526;29;20127;-81
2022/08/03 10:45:42;;;;;;;0.20;0.10;;;;;;;;;;4858960;29;20134;-82
2022/08/03 10:48:09;;;;;;;0.35;0.35;;;;;;;;;;4872022;29;20048;-83
2022/08/03 10:50:35;;;;;;;0.20;0.10;;;;;;;;;;4857883;29;20613;-83
2022/08/03 10:53:06;;;;;;;0.20;0.10;;;;;;;;;;4867955;29;20040;-85
2022/08/03 10:58:39;;;;;;;2.40;0.85;;;;;;;;;;4869184;29;20606;-85
2022/08/03 11:01:09;;;;;;;0.20;0.10;;;;;;;;;;4868955;29;20071;-84
2022/08/03 11:03:54;;;;;;;0.20;0.10;;;;;;;;;;4876286;29;20484;-82
2022/08/03 11:06:24;;;;;;;0.20;0.10;;;;;;;;;;4866588;29;20048;-84
2022/08/03 11:09:09;;;;;;;0.20;0.10;;;;;;;;;;4861934;29;20543;-85
2022/08/03 11:11:36;;;;;;;0.20;0.10;;;;;;;;;;4853710;29;20765;-85
2022/08/03 11:14:09;;;;;;;0.30;0.20;;;;;;;;;;4870907;29;20042;-86
2022/08/03 11:16:36;;;;;;;0.30;0.25;;;;;;;;;;4863186;29;20045;-85
2022/08/03 11:19:03;;;;;;;0.75;0.55;;;;;;;;;;4857070;29;20049;-83
2022/08/03 11:21:50;;;;;;;0.20;0.10;;;;;;;;;;4869064;29;20044;-84
2022/08/03 11:24:35;;;;;;;0.40;0.35;;;;;;;;;;4844183;29;20044;-86
2022/08/03 11:27:20;;;;;;;0.20;0.10;;;;;;;;;;4861539;29;20051;-85
2022/08/03 11:29:59;;;;;;;0.20;0.10;;;;;;;;;;4877448;29;20084;-84
2022/08/03 11:32:44;;;;;;;0.20;0.10;;;;;;;;;;4858504;29;20385;-85
2022/08/03 11:35:11;;;;;;;0.30;0.30;;;;;;;;;;4853937;29;20076;-84
2022/08/03 11:37:56;;;;;;;0.20;0.10;;;;;;;;;;4844049;29;20041;-84
2022/08/03 11:40:41;;;;;;;0.30;0.28;;;;;;;;;;4864320;29;20519;-83
2022/08/03 11:43:30;;;;;;;0.20;0.10;;;;;;;;;;4866336;29;20040;-84
2022/08/03 11:45:56;;;;;;;0.47;0.32;;;;;;;;;;4866239;29;20428;-85
2022/08/03 11:48:22;;;;;;;0.20;0.10;;;;;;;;;;4853228;29;20112;-86
2022/08/03 11:50:49;;;;;;;0.20;0.10;;;;;;;;;;4853396;29;20135;-85
2022/08/03 11:53:16;;;;;;;0.20;0.00;;;;;;;;;;4853551;29;20041;-84
2022/08/03 11:55:45;;;;;;;0.20;0.10;;;;;;;;;;4853930;29;20040;-85
2022/08/03 11:58:18;;;;;;;0.20;0.10;;;;;;;;;;4845440;29;20468;-82
2022/08/03 12:00:44;;;;;;;0.45;0.20;;;;;;;;;;4863107;29;20131;-85
2022/08/03 12:03:13;;;;;;;0.20;0.10;;;;;;;;;;4833344;29;20048;-85
2022/08/03 12:05:40;;;;;;;0.20;0.10;;;;;;;;;;4863885;29;20052;-84
2022/08/03 12:08:07;;;;;;;0.28;0.17;;;;;;;;;;4849335;29;20076;-84
2022/08/03 12:10:37;;;;;;;0.22;0.22;;;;;;;;;;4834374;29;20140;-86
2022/08/03 12:13:10;;;;;;;0.20;0.10;;;;;;;;;;4848384;29;20083;-83
2022/08/03 12:15:37;;;;;;;0.20;0.10;;;;;;;;;;4865230;29;20048;-83
2022/08/03 12:18:04;;;;;;;0.20;0.20;;;;;;;;;;4867358;29;20044;-86
2022/08/03 12:20:31;;;;;;;0.52;0.47;;;;;;;;;;4863674;29;20052;-83
2022/08/03 12:23:06;;;;;;;1.30;0.98;;;;;;;;;;4852981;29;20456;-84
2022/08/03 12:25:33;;;;;;;0.75;0.75;;;;;;;;;;4853368;29;20050;-83
2022/08/03 12:28:07;;;;;;;0.25;0.17;;;;;;;;;;4852312;29;20055;-84
2022/08/03 12:30:34;;;;;;;0.20;0.10;;;;;;;;;;4860253;29;20048;-85
2022/08/03 12:33:10;;;;;;;1.38;0.75;;;;;;;;;;4866086;29;20049;-85
2022/08/03 12:35:37;;;;;;;0.20;0.17;;;;;;;;;;4857599;29;20049;-83
2022/08/03 12:38:05;;;;;;;0.40;0.20;;;;;;;;;;4850017;29;20044;-84
2022/08/03 12:40:32;;;;;;;0.82;0.40;;;;;;;;;;4858290;29;20043;-84
2022/08/03 12:42:58;;;;;;;3.45;0.80;;;;;;;;;;4866226;29;20063;-84
2022/08/03 12:45:30;;;;;;;0.20;0.10;;;;;;;;;;4825898;29;20080;-82
2022/08/03 12:48:03;;;;;;;0.20;0.15;;;;;;;;;;4862856;29;20064;-85
2022/08/03 12:50:30;;;;;;;1.48;0.40;;;;;;;;;;4871437;29;20168;-84
2022/08/03 12:52:58;;;;;;;0.22;0.22;;;;;;;;;;4853542;29;20041;-85
2022/08/03 12:55:26;;;;;;;0.20;0.10;;;;;;;;;;4857304;29;20127;-83
2022/08/03 12:57:52;;;;;;;0.20;0.10;;;;;;;;;;4864405;29;20151;-83
2022/08/03 13:00:19;;;;;;;0.20;0.10;;;;;;;;;;4845195;29;20049;-83
2022/08/03 13:02:45;;;;;;;0.63;0.28;;;;;;;;;;4847538;29;20048;-82
2022/08/03 13:05:12;;;;;;;3.30;1.58;;;;;;;;;;4859660;29;20512;-86
2022/08/03 13:07:42;;;;;;;0.20;0.10;;;;;;;;;;4834105;29;20101;-84
2022/08/03 13:10:08;;;;;;;0.55;0.50;;;;;;;;;;4863817;29;20039;-84
2022/08/03 13:12:45;;;;;;;0.20;0.10;;;;;;;;;;4847365;29;20041;-84
2022/08/03 13:15:11;;;;;;;0.85;0.63;;;;;;;;;;4856652;29;20032;-82
2022/08/03 13:17:47;;;;;;;0.20;0.10;;;;;;;;;;4851904;29;20854;-85
2022/08/03 13:20:13;;;;;;;0.25;0.15;;;;;;;;;;4850223;29;20043;-84
2022/08/03 13:22:42;;;;;;;0.20;0.20;;;;;;;;;;4838896;29;20040;-85
2022/08/03 13:25:08;;;;;;;0.20;0.20;;;;;;;;;;4863938;29;20048;-85
2022/08/03 13:27:34;;;;;;;0.20;0.20;;;;;;;;;;4854649;29;20048;-84
2022/08/03 13:30:00;;;;;;;0.20;0.10;;;;;;;;;;4857638;29;20506;-84
2022/08/03 13:32:26;;;;;;;0.20;0.10;;;;;;;;;;4861426;29;20041;-85
2022/08/03 13:34:52;;;;;;;0.20;0.10;;;;;;;;;;4853603;29;20040;-84
2022/08/03 13:37:19;;;;;;;1.15;0.57;;;;;;;;;;4838774;29;20160;-83
2022/08/03 13:39:45;;;;;;;0.20;0.10;;;;;;;;;;4867046;29;20189;-86
2022/08/03 13:42:14;;;;;;;0.20;0.10;;;;;;;;;;4837427;29;20077;-83
2022/08/03 13:44:40;;;;;;;0.20;0.17;;;;;;;;;;4853697;29;20068;-82
2022/08/03 13:47:06;;;;;;;0.20;0.10;;;;;;;;;;4867498;29;20127;-82
2022/08/03 13:49:35;;;;;;;0.20;0.10;;;;;;;;;;4871462;29;20056;-83
2022/08/03 13:52:04;;;;;;;0.20;0.10;;;;;;;;;;4851237;29;20431;-81
2022/08/03 13:54:32;;;;;;;0.20;0.10;;;;;;;;;;4833013;29;20041;-84
2022/08/03 13:56:59;;;;;;;0.20;0.10;;;;;;;;;;4881107;29;20138;-83
2022/08/03 13:59:27;;;;;;;0.20;0.10;;;;;;;;;;4850815;29;20493;-84
2022/08/03 14:01:54;;;;;;;0.20;0.10;;;;;;;;;;4852378;29;20120;-85
2022/08/03 14:04:20;;;;;;;0.20;0.10;;;;;;;;;;4848545;29;20151;-81
2022/08/03 14:06:47;;;;;;;0.20;0.10;;;;;;;;;;4863156;29;20044;-86
2022/08/03 14:09:14;;;;;;;0.30;0.30;;;;;;;;;;4849107;29;20040;-82
2022/08/03 14:11:40;;;;;;;0.20;0.10;;;;;;;;;;4883377;29;21903;-84
2022/08/03 14:14:06;;;;;;;0.30;0.20;;;;;;;;;;4831915;29;20184;-82
2022/08/03 14:16:32;;;;;;;0.20;0.10;;;;;;;;;;4858975;29;20276;-83
2022/08/03 14:18:58;;;;;;;0.20;0.20;;;;;;;;;;4830932;29;20037;-82
2022/08/03 14:21:25;;;;;;;0.20;0.10;;;;;;;;;;4848384;29;20427;-82
2022/08/03 14:23:51;;;;;;;0.20;0.10;;;;;;;;;;4861638;29;20053;-83
2022/08/03 14:26:19;;;;;;;0.20;0.10;;;;;;;;;;4857878;29;20055;-82
2022/08/03 14:28:45;;;;;;;0.20;0.10;;;;;;;;;;4862137;29;20126;-81
2022/08/03 14:31:11;;;;;;;0.20;0.10;;;;;;;;;;4848446;29;20131;-84
2022/08/03 14:33:37;;;;;;;0.20;0.10;;;;;;;;;;4862176;29;20040;-84
2022/08/03 14:36:04;;;;;;;0.20;0.10;;;;;;;;;;4834170;29;20056;-82
2022/08/03 14:38:30;;;;;;;0.20;0.10;;;;;;;;;;4857906;29;20080;-82
2022/08/03 14:40:56;;;;;;;0.20;0.10;;;;;;;;;;4847190;29;20045;-83
2022/08/03 14:43:22;;;;;;;0.20;0.10;;;;;;;;;;4844222;29;20048;-83
2022/08/03 14:45:52;;;;;;;0.20;0.10;;;;;;;;;;4850011;29;20567;-83
2022/08/03 14:48:22;;;;;;;0.25;0.20;;;;;;;;;;4845974;29;20053;-81
2022/08/03 14:50:49;;;;;;;0.20;0.10;;;;;;;;;;4833892;29;20040;-85
2022/08/03 14:53:18;;;;;;;0.20;0.10;;;;;;;;;;4865772;29;20048;-81
2022/08/03 14:55:44;;;;;;;0.20;0.10;;;;;;;;;;4845367;29;20183;-81
2022/08/03 14:58:10;;;;;;;0.20;0.10;;;;;;;;;;4845609;29;20048;-85
2022/08/03 15:00:37;;;;;;;0.20;0.10;;;;;;;;;;4825123;29;20558;-82